createdAt,value
2023-01-09T00:02:12.836Z,84.55
2023-01-09T00:04:46.169Z,84.40
2023-01-09T00:07:20.748Z,85.03
2023-01-09T00:09:54.325Z,85.98
2023-01-09T00:12:28.227Z,85.79
2023-01-09T00:15:02.118Z,85.04
2023-01-09T00:17:35.589Z,85.24
2023-01-09T00:20:10.760Z,85.67
2023-01-09T00:22:45.494Z,85.88
2023-01-09T00:25:19.290Z,85.51
2023-01-09T00:27:52.576Z,85.45
2023-01-09T00:30:26.230Z,86.15
2023-01-09T00:32:59.509Z,86.12
2023-01-09T00:35:33.096Z,84.92
2023-01-09T00:38:07.761Z,85.81
2023-01-09T00:40:41.191Z,86.31
2023-01-09T00:43:14.844Z,85.85
2023-01-09T00:45:48.380Z,85.22
2023-01-09T00:48:27.098Z,85.05
2023-01-09T00:51:01.073Z,83.98
2023-01-09T00:53:39.128Z,84.35
2023-01-09T00:56:20.859Z,84.04
2023-01-09T00:58:54.903Z,83.54
2023-01-09T01:01:28.197Z,84.56
2023-01-09T01:04:22.508Z,83.62
2023-01-09T01:07:12.931Z,85.55
2023-01-09T01:09:47.664Z,84.90
2023-01-09T01:12:21.612Z,85.43
2023-01-09T01:14:55.276Z,85.55
2023-01-09T01:17:28.906Z,85.43
2023-01-09T01:20:02.147Z,84.74
2023-01-09T01:22:35.583Z,85.33
2023-01-09T01:25:11.743Z,84.99
2023-01-09T01:27:45.727Z,85.51
2023-01-09T01:30:20.034Z,85.58
2023-01-09T01:32:53.097Z,84.51
2023-01-09T01:35:26.872Z,86.04
2023-01-09T01:38:00.473Z,85.04
2023-01-09T01:40:35.979Z,85.19
2023-01-09T01:43:13.654Z,85.64
2023-01-09T01:45:47.391Z,85.92
2023-01-09T01:48:26.084Z,85.18
2023-01-09T01:51:03.676Z,86.25
2023-01-09T01:53:40.711Z,86.38
2023-01-09T01:56:18.328Z,84.73
2023-01-09T01:58:54.606Z,84.99
2023-01-09T02:01:30.161Z,85.54
2023-01-09T02:04:03.940Z,84.80
2023-01-09T02:06:38.619Z,85.47
2023-01-09T02:09:27.702Z,84.82
2023-01-09T02:12:17.658Z,85.17
2023-01-09T02:14:53.356Z,84.91
2023-01-09T02:17:41.258Z,83.79
2023-01-09T02:20:36.912Z,84.16
2023-01-09T02:24:07.199Z,84.24
2023-01-09T02:27:13.164Z,85.90
2023-01-09T02:30:10.651Z,85.94
2023-01-09T02:32:59.747Z,85.46
2023-01-09T02:35:45.691Z,85.40
2023-01-09T02:38:24.946Z,85.77
2023-01-09T02:41:06.364Z,85.01
2023-01-09T02:43:41.057Z,84.79
2023-01-09T02:46:22.511Z,85.11
2023-01-09T02:48:56.638Z,84.72
2023-01-09T02:51:37.957Z,84.62
2023-01-09T02:54:25.713Z,84.73
2023-01-09T02:57:23.161Z,85.63
2023-01-09T03:00:09.276Z,85.47
2023-01-09T03:02:51.878Z,84.89
2023-01-09T03:05:32.167Z,84.36
2023-01-09T03:08:09.587Z,83.82
2023-01-09T03:10:49.680Z,84.29
2023-01-09T03:13:26.505Z,84.89
2023-01-09T03:16:03.912Z,83.89
2023-01-09T03:18:41.111Z,83.36
2023-01-09T03:21:15.241Z,83.96
2023-01-09T03:23:50.834Z,83.89
2023-01-09T03:26:24.524Z,83.25
2023-01-09T03:28:57.623Z,83.14
2023-01-09T03:31:31.319Z,82.59
2023-01-09T03:34:06.752Z,83.11
2023-01-09T03:36:40.055Z,83.81
2023-01-09T03:39:13.321Z,83.38
2023-01-09T03:41:47.339Z,85.20
2023-01-09T03:44:20.856Z,84.22
2023-01-09T03:46:54.096Z,85.45
2023-01-09T03:49:28.874Z,85.42
2023-01-09T03:52:02.414Z,86.86
2023-01-09T03:54:36.007Z,88.43
2023-01-09T03:57:09.434Z,89.45
2023-01-09T03:59:42.783Z,90.39
2023-01-09T04:02:16.222Z,91.83
2023-01-09T04:04:51.345Z,92.58
2023-01-09T04:07:24.914Z,92.94
2023-01-09T04:09:58.121Z,93.61
2023-01-09T04:12:32.225Z,94.44
2023-01-09T04:15:07.205Z,94.58
2023-01-09T04:17:41.159Z,94.43
2023-01-09T04:20:16.347Z,93.38
2023-01-09T04:22:50.230Z,93.60
2023-01-09T04:25:23.843Z,93.33
2023-01-09T04:27:57.370Z,93.49
2023-01-09T04:30:30.617Z,93.37
2023-01-09T04:33:03.923Z,93.60
2023-01-09T04:35:38.596Z,94.51
2023-01-09T04:38:12.020Z,94.93
2023-01-09T04:40:48.475Z,95.88
2023-01-09T04:43:21.969Z,95.81
2023-01-09T04:45:55.426Z,96.39
2023-01-09T04:48:28.859Z,97.15
2023-01-09T04:51:03.509Z,96.63
2023-01-09T04:53:37.352Z,97.07
2023-01-09T04:56:10.885Z,98.73
2023-01-09T04:58:44.215Z,99.17
2023-01-09T05:01:17.697Z,99.90
2023-01-09T05:03:51.095Z,99.17
2023-01-09T05:06:26.223Z,100.00
2023-01-09T05:08:59.810Z,100.00
2023-01-09T05:11:33.707Z,100.00
2023-01-09T05:14:07.390Z,100.00
2023-01-09T05:16:40.995Z,99.89
2023-01-09T05:19:14.382Z,99.68
2023-01-09T05:21:49.239Z,100.00
2023-01-09T05:24:23.093Z,99.37
2023-01-09T05:26:56.915Z,99.66
2023-01-09T05:29:32.253Z,99.41
2023-01-09T05:32:06.033Z,99.66
2023-01-09T05:34:39.243Z,98.80
2023-01-09T05:37:14.047Z,99.17
2023-01-09T05:39:47.482Z,99.10
2023-01-09T05:42:21.051Z,97.85
2023-01-09T05:44:54.710Z,98.05
2023-01-09T05:47:28.019Z,97.91
2023-01-09T05:50:01.271Z,98.83
2023-01-09T05:52:36.067Z,98.05
2023-01-09T05:55:12.183Z,97.76
2023-01-09T05:57:45.623Z,97.91
2023-01-09T06:00:20.392Z,97.52
2023-01-09T06:02:53.911Z,96.90
2023-01-09T06:05:27.315Z,96.79
2023-01-09T06:08:02.889Z,97.46
2023-01-09T06:10:36.123Z,97.77
2023-01-09T06:13:09.706Z,97.96
2023-01-09T06:15:43.466Z,96.80
2023-01-09T06:18:17.149Z,97.40
2023-01-09T06:20:50.389Z,96.78
2023-01-09T06:23:25.185Z,96.21
2023-01-09T06:25:58.543Z,96.05
2023-01-09T06:28:31.898Z,95.96
2023-01-09T06:31:05.637Z,96.13
2023-01-09T06:33:39.376Z,95.21
2023-01-09T06:36:12.876Z,95.23
2023-01-09T06:38:47.688Z,95.45
2023-01-09T06:41:21.013Z,94.38
2023-01-09T06:43:54.368Z,94.00
2023-01-09T06:46:27.924Z,94.95
2023-01-09T06:49:01.704Z,95.13
2023-01-09T06:51:36.667Z,94.68
2023-01-09T06:54:11.472Z,95.24
2023-01-09T06:56:45.075Z,95.56
2023-01-09T06:59:18.323Z,94.67
2023-01-09T07:01:51.873Z,93.83
2023-01-09T07:04:25.387Z,93.00
2023-01-09T07:06:58.875Z,93.74
2023-01-09T07:09:33.939Z,93.25
2023-01-09T07:12:08.758Z,93.84
2023-01-09T07:14:42.679Z,93.32
2023-01-09T07:17:16.023Z,94.21
2023-01-09T07:19:49.456Z,93.07
2023-01-09T07:22:23.401Z,93.18
2023-01-09T07:24:58.239Z,92.83
2023-01-09T07:27:31.746Z,93.03
2023-01-09T07:30:05.749Z,92.80
2023-01-09T07:32:40.500Z,92.71
2023-01-09T07:35:14.105Z,93.34
2023-01-09T07:37:47.993Z,93.07
2023-01-09T07:40:22.905Z,94.16
2023-01-09T07:42:56.148Z,94.17
2023-01-09T07:45:29.484Z,94.95
2023-01-09T07:48:02.855Z,93.83
2023-01-09T07:50:36.381Z,94.42
2023-01-09T07:53:09.972Z,94.27
2023-01-09T07:55:45.123Z,94.79
2023-01-09T07:58:18.560Z,95.31
2023-01-09T08:00:52.127Z,96.10
2023-01-09T08:03:26.919Z,95.49
2023-01-09T08:06:00.957Z,96.35
2023-01-09T08:08:34.329Z,96.88
2023-01-09T08:11:09.279Z,97.69
2023-01-09T08:13:43.195Z,98.45
2023-01-09T08:16:16.632Z,97.98
2023-01-09T08:18:50.142Z,97.35
2023-01-09T08:21:23.828Z,97.16
2023-01-09T08:23:57.470Z,97.68
2023-01-09T08:26:32.249Z,97.35
2023-01-09T08:29:06.603Z,97.09
2023-01-09T08:31:39.970Z,97.49
2023-01-09T08:34:13.596Z,97.56
2023-01-09T08:36:47.052Z,97.67
2023-01-09T08:39:20.968Z,97.65
2023-01-09T08:42:13.253Z,97.83
2023-01-09T08:45:03.749Z,98.38
2023-01-09T08:47:37.528Z,98.17
2023-01-09T08:50:12.074Z,98.76
2023-01-09T08:52:45.416Z,98.22
2023-01-09T08:55:19.122Z,98.92
2023-01-09T08:57:55.262Z,99.14
2023-01-09T09:00:29.310Z,99.11
2023-01-09T09:03:03.057Z,100.00
2023-01-09T09:05:36.161Z,100.00
2023-01-09T09:08:09.465Z,100.00
2023-01-09T09:10:43.244Z,100.00
2023-01-09T09:13:18.835Z,100.00
2023-01-09T09:15:52.651Z,100.00
2023-01-09T09:18:25.956Z,100.00
2023-01-09T09:20:59.150Z,99.80
2023-01-09T09:23:32.456Z,99.57
2023-01-09T09:26:06.317Z,98.95
2023-01-09T09:28:41.398Z,98.90
2023-01-09T09:31:14.590Z,99.79
2023-01-09T09:33:47.993Z,100.00
2023-01-09T09:36:21.321Z,100.00
2023-01-09T09:38:54.669Z,100.00
2023-01-09T09:42:20.064Z,100.00
2023-01-09T09:45:15.170Z,100.00
2023-01-09T09:47:58.534Z,100.00
2023-01-09T09:50:52.881Z,100.00
2023-01-09T09:53:30.764Z,100.00
2023-01-09T09:56:05.507Z,100.00
2023-01-09T09:58:41.226Z,100.00
2023-01-09T10:01:22.517Z,100.00
2023-01-09T10:04:00.261Z,100.00
2023-01-09T10:06:37.718Z,100.00
2023-01-09T10:09:18.559Z,100.00
2023-01-09T10:11:59.680Z,100.00
2023-01-09T10:14:34.368Z,100.00
2023-01-09T10:17:19.057Z,100.00
2023-01-09T10:20:12.208Z,100.00
2023-01-09T10:22:57.118Z,100.00
2023-01-09T10:25:40.018Z,100.00
2023-01-09T10:28:46.072Z,100.00
2023-01-09T10:31:28.911Z,100.00
2023-01-09T10:34:15.707Z,100.00
2023-01-09T10:37:06.649Z,99.58
2023-01-09T10:39:48.571Z,99.19
2023-01-09T10:42:30.838Z,99.42
2023-01-09T10:45:13.567Z,99.01
2023-01-09T10:47:47.089Z,98.98
2023-01-09T10:50:24.274Z,98.58
2023-01-09T10:52:58.325Z,98.77
2023-01-09T10:55:40.203Z,98.55
2023-01-09T10:58:15.023Z,98.38
2023-01-09T11:00:49.994Z,98.23
2023-01-09T11:03:25.275Z,97.96
2023-01-09T11:06:01.138Z,98.49
2023-01-09T11:08:40.301Z,99.16
2023-01-09T11:11:23.540Z,98.92
2023-01-09T11:14:06.816Z,98.27
2023-01-09T11:16:52.901Z,97.84
2023-01-09T11:19:28.256Z,97.45
2023-01-09T11:22:10.787Z,97.15
2023-01-09T11:24:44.327Z,98.26
2023-01-09T11:27:29.825Z,98.50
2023-01-09T11:30:20.082Z,98.83
2023-01-09T11:32:53.920Z,98.50
2023-01-09T11:35:33.088Z,98.25
2023-01-09T11:38:16.113Z,97.65
2023-01-09T11:40:51.286Z,96.92
2023-01-09T11:43:32.799Z,96.45
2023-01-09T11:46:08.052Z,96.31
2023-01-09T11:48:54.699Z,96.40
2023-01-09T11:51:29.911Z,96.28
2023-01-09T11:54:22.500Z,96.03
2023-01-09T11:56:57.084Z,96.14
2023-01-09T11:59:32.176Z,95.50
2023-01-09T12:02:41.088Z,95.83
2023-01-09T12:05:26.736Z,95.38
2023-01-09T12:08:25.189Z,94.89
2023-01-09T12:11:31.566Z,95.18
2023-01-09T12:14:26.473Z,94.65
2023-01-09T12:17:15.821Z,94.46
2023-01-09T12:20:03.789Z,94.17
2023-01-09T12:22:47.138Z,93.99
2023-01-09T12:25:31.729Z,92.46
2023-01-09T12:28:21.415Z,92.67
2023-01-09T12:31:05.369Z,92.16
2023-01-09T12:33:48.965Z,91.71
2023-01-09T12:36:31.696Z,92.09
2023-01-09T12:39:20.405Z,91.75
2023-01-09T12:42:06.240Z,91.17
2023-01-09T12:45:00.282Z,91.83
2023-01-09T12:47:45.431Z,91.96
2023-01-09T12:50:37.721Z,91.87
2023-01-09T12:53:20.869Z,92.11
2023-01-09T12:56:01.728Z,91.77
2023-01-09T12:58:44.665Z,91.92
2023-01-09T13:01:23.790Z,92.90
2023-01-09T13:04:08.655Z,92.67
2023-01-09T13:06:46.933Z,93.03
2023-01-09T13:09:27.720Z,93.48
2023-01-09T13:12:07.605Z,93.80
2023-01-09T13:14:50.760Z,93.88
2023-01-09T13:17:31.181Z,93.58
2023-01-09T13:20:13.799Z,93.00
2023-01-09T13:22:50.353Z,92.62
2023-01-09T13:25:43.426Z,92.54
2023-01-09T13:28:22.134Z,92.27
2023-01-09T13:31:18.192Z,92.27
2023-01-09T13:33:55.661Z,91.87
2023-01-09T13:36:33.097Z,91.94
2023-01-09T13:39:08.063Z,92.32
2023-01-09T13:42:06.905Z,92.22
2023-01-09T13:44:40.975Z,92.94
2023-01-09T13:47:20.994Z,92.87
2023-01-09T13:50:20.750Z,92.81
2023-01-09T13:52:54.484Z,92.35
2023-01-09T13:55:37.149Z,92.34
2023-01-09T13:58:23.574Z,92.86
2023-01-09T14:01:00.506Z,93.23
2023-01-09T14:03:37.340Z,93.94
2023-01-09T14:06:17.729Z,94.08
2023-01-09T14:09:09.560Z,93.98
2023-01-09T14:11:44.951Z,94.01
2023-01-09T14:14:29.525Z,94.08
2023-01-09T14:17:04.379Z,94.37
2023-01-09T14:19:40.524Z,95.11
2023-01-09T14:22:27.834Z,95.23
2023-01-09T14:25:09.617Z,96.05
2023-01-09T14:28:11.694Z,96.11
2023-01-09T14:31:10.353Z,96.92
2023-01-09T14:33:48.912Z,97.01
2023-01-09T14:36:29.310Z,97.51
2023-01-09T14:39:09.605Z,97.70
2023-01-09T14:42:00.765Z,97.71
2023-01-09T14:44:46.528Z,98.18
2023-01-09T14:47:25.444Z,97.91
2023-01-09T14:50:04.168Z,97.99
2023-01-09T14:52:41.660Z,98.89
2023-01-09T14:55:25.447Z,98.78
2023-01-09T14:58:11.889Z,98.27
2023-01-09T15:01:02.845Z,98.19
2023-01-09T15:03:40.589Z,98.81
2023-01-09T15:06:18.054Z,98.82
2023-01-09T15:08:58.273Z,98.52
2023-01-09T15:11:34.713Z,98.30
2023-01-09T15:14:10.346Z,98.70
2023-01-09T15:16:46.544Z,98.33
2023-01-09T15:19:20.982Z,98.50
2023-01-09T15:21:59.350Z,98.62
2023-01-09T15:24:34.678Z,98.94
2023-01-09T15:27:15.725Z,98.82
2023-01-09T15:29:49.481Z,98.53
2023-01-09T15:32:27.048Z,98.13
2023-01-09T15:35:00.373Z,98.07
2023-01-09T15:37:38.961Z,98.24
2023-01-09T15:40:25.000Z,98.23
2023-01-09T15:43:01.724Z,98.33
2023-01-09T15:45:38.573Z,98.41
2023-01-09T15:48:17.408Z,98.36
2023-01-09T15:50:53.981Z,98.82
2023-01-09T15:53:29.084Z,99.27
2023-01-09T15:56:19.683Z,99.07
2023-01-09T15:58:55.522Z,98.74
2023-01-09T16:01:32.690Z,99.00
2023-01-09T16:04:08.673Z,98.75
2023-01-09T16:06:45.529Z,98.37
2023-01-09T16:09:21.927Z,98.64
2023-01-09T16:11:59.128Z,98.33
2023-01-09T16:14:38.649Z,98.42
2023-01-09T16:17:17.798Z,98.51
2023-01-09T16:19:52.789Z,98.42
2023-01-09T16:22:29.253Z,98.17
2023-01-09T16:25:22.149Z,98.41
2023-01-09T16:28:10.194Z,99.03
2023-01-09T16:30:53.950Z,99.17
2023-01-09T16:33:29.049Z,99.20
2023-01-09T16:36:03.434Z,98.68
2023-01-09T16:38:36.640Z,98.87
2023-01-09T16:41:34.199Z,98.31
2023-01-09T16:44:09.678Z,98.75
2023-01-09T16:46:46.059Z,98.68
2023-01-09T16:49:22.787Z,99.02
2023-01-09T16:51:57.088Z,98.90
2023-01-09T16:54:31.460Z,98.73
2023-01-09T16:57:05.072Z,98.63
2023-01-09T16:59:38.586Z,98.20
2023-01-09T17:02:18.506Z,98.30
2023-01-09T17:04:52.060Z,98.50
2023-01-09T17:07:28.551Z,98.49
2023-01-09T17:10:02.299Z,98.58
2023-01-09T17:12:38.636Z,98.92
2023-01-09T17:15:12.586Z,99.44
2023-01-09T17:17:47.881Z,99.80
2023-01-09T17:20:21.601Z,99.08
2023-01-09T17:22:55.243Z,99.19
2023-01-09T17:25:45.762Z,98.68
2023-01-09T17:28:36.090Z,98.27
2023-01-09T17:31:13.104Z,98.65
2023-01-09T17:33:47.805Z,98.61
2023-01-09T17:36:26.322Z,98.11
2023-01-09T17:39:00.422Z,98.69
2023-01-09T17:41:34.515Z,98.86
2023-01-09T17:44:08.178Z,98.62
2023-01-09T17:46:43.147Z,98.77
2023-01-09T17:49:20.465Z,98.70
2023-01-09T17:51:54.107Z,98.09
2023-01-09T17:54:27.417Z,98.19
2023-01-09T17:57:02.221Z,98.07
2023-01-09T17:59:35.999Z,97.94
2023-01-09T18:02:16.925Z,98.74
2023-01-09T18:04:51.551Z,98.67
2023-01-09T18:07:25.018Z,98.27
2023-01-09T18:09:59.115Z,98.03
2023-01-09T18:12:33.569Z,98.34
2023-01-09T18:15:07.652Z,98.62
2023-01-09T18:17:40.904Z,98.66
2023-01-09T18:20:15.646Z,98.32
2023-01-09T18:22:49.713Z,98.06
2023-01-09T18:25:23.976Z,98.20
2023-01-09T18:27:57.596Z,98.25
2023-01-09T18:30:31.828Z,98.24
2023-01-09T18:33:06.194Z,98.43
2023-01-09T18:35:41.255Z,98.69
2023-01-09T18:38:15.946Z,98.63
2023-01-09T18:40:49.904Z,98.29
2023-01-09T18:43:24.868Z,98.26
2023-01-09T18:45:58.746Z,98.18
2023-01-09T18:48:32.185Z,99.06
2023-01-09T18:51:08.952Z,98.98
2023-01-09T18:53:42.627Z,98.54
2023-01-09T18:56:16.227Z,98.54
2023-01-09T18:58:50.240Z,98.48
2023-01-09T19:01:24.012Z,98.56
2023-01-09T19:03:59.479Z,99.03
2023-01-09T19:06:34.516Z,98.66
2023-01-09T19:09:08.311Z,98.72
2023-01-09T19:11:44.304Z,98.69
2023-01-09T19:14:18.513Z,98.88
2023-01-09T19:16:54.584Z,98.60
2023-01-09T19:19:29.737Z,98.75
2023-01-09T19:22:04.482Z,98.61
2023-01-09T19:24:37.787Z,98.82
2023-01-09T19:27:11.700Z,99.02
2023-01-09T19:29:45.223Z,98.74
2023-01-09T19:32:18.869Z,98.49
2023-01-09T19:34:52.312Z,98.78
2023-01-09T19:37:27.783Z,99.19
2023-01-09T19:40:01.734Z,99.45
2023-01-09T19:42:39.148Z,99.72
2023-01-09T19:45:14.445Z,100.00
2023-01-09T19:47:49.451Z,100.00
2023-01-09T19:50:25.207Z,100.00
2023-01-09T19:53:01.876Z,100.00
2023-01-09T19:55:39.857Z,100.00
2023-01-09T19:58:14.841Z,100.00
2023-01-09T20:00:51.726Z,100.00
2023-01-09T20:03:28.441Z,100.00
2023-01-09T20:06:07.195Z,100.00
2023-01-09T20:08:43.843Z,100.00
2023-01-09T20:11:18.797Z,100.00
2023-01-09T20:13:54.361Z,100.00
2023-01-09T20:16:32.453Z,100.00
2023-01-09T20:19:09.495Z,100.00
2023-01-09T20:21:45.545Z,100.00
2023-01-09T20:24:21.113Z,100.00
2023-01-09T20:26:54.841Z,100.00
2023-01-09T20:29:30.327Z,100.00
2023-01-09T20:32:06.499Z,100.00
2023-01-09T20:34:39.940Z,100.00
2023-01-09T20:37:14.632Z,100.00
2023-01-09T20:39:52.959Z,100.00
2023-01-09T20:42:26.421Z,100.00
2023-01-09T20:45:00.165Z,100.00
2023-01-09T20:47:33.807Z,100.00
2023-01-09T20:50:07.914Z,100.00
2023-01-09T20:52:41.210Z,100.00
2023-01-09T20:55:16.242Z,100.00
2023-01-09T20:57:49.498Z,100.00
2023-01-09T21:00:27.510Z,100.00
2023-01-09T21:03:00.850Z,100.00
2023-01-09T21:05:34.219Z,100.00
2023-01-09T21:08:07.777Z,100.00
2023-01-09T21:10:42.420Z,100.00
2023-01-09T21:13:16.312Z,100.00
2023-01-09T21:15:50.356Z,100.00
2023-01-09T21:18:24.396Z,100.00
2023-01-09T21:20:57.788Z,100.00
2023-01-09T21:23:31.062Z,100.00
2023-01-09T21:26:11.397Z,100.00
2023-01-09T21:28:49.112Z,100.00
2023-01-09T21:31:28.731Z,100.00
2023-01-09T21:34:03.251Z,100.00
2023-01-09T21:36:36.783Z,100.00
2023-01-09T21:39:10.516Z,100.00
2023-01-09T21:42:03.246Z,100.00
2023-01-09T21:44:56.968Z,100.00
2023-01-09T21:47:32.987Z,100.00
2023-01-09T21:50:07.277Z,100.00
2023-01-09T21:52:40.529Z,100.00
2023-01-09T21:55:13.882Z,100.00
2023-01-09T21:57:48.907Z,100.00
2023-01-09T22:00:22.615Z,100.00
2023-01-09T22:02:56.269Z,100.00
2023-01-09T22:05:29.537Z,100.00
2023-01-09T22:08:02.895Z,100.00
2023-01-09T22:10:36.295Z,100.00
2023-01-09T22:13:16.284Z,100.00
2023-01-09T22:15:50.300Z,100.00
2023-01-09T22:18:23.741Z,100.00
2023-01-09T22:21:04.611Z,100.00
2023-01-09T22:23:37.958Z,100.00
2023-01-09T22:26:13.377Z,100.00
2023-01-09T22:28:50.108Z,100.00
2023-01-09T22:31:25.915Z,100.00
2023-01-09T22:34:02.432Z,100.00
2023-01-09T22:36:36.126Z,100.00
2023-01-09T22:39:13.155Z,100.00
2023-01-09T22:41:50.697Z,100.00
2023-01-09T22:44:25.471Z,100.00
2023-01-09T22:46:59.138Z,100.00
2023-01-09T22:49:37.297Z,100.00
2023-01-09T22:52:24.672Z,100.00
2023-01-09T22:54:57.900Z,100.00
2023-01-09T22:57:31.157Z,100.00
2023-01-09T23:00:08.135Z,100.00
2023-01-09T23:02:41.557Z,100.00
2023-01-09T23:05:15.277Z,100.00
2023-01-09T23:07:48.495Z,100.00
2023-01-09T23:10:21.734Z,100.00
2023-01-09T23:12:55.321Z,100.00
2023-01-09T23:15:31.685Z,100.00
2023-01-09T23:18:06.294Z,100.00
2023-01-09T23:20:39.667Z,100.00
2023-01-09T23:23:12.874Z,100.00
2023-01-09T23:25:49.598Z,100.00
2023-01-09T23:28:23.427Z,100.00
2023-01-09T23:30:58.678Z,100.00
2023-01-09T23:33:32.523Z,100.00
2023-01-09T23:36:06.512Z,100.00
2023-01-09T23:38:39.814Z,100.00
2023-01-09T23:41:13.101Z,100.00
2023-01-09T23:43:46.002Z,100.00
2023-01-09T23:46:20.869Z,100.00
2023-01-09T23:48:54.367Z,100.00
2023-01-09T23:51:27.765Z,100.00
2023-01-09T23:54:01.014Z,100.00
2023-01-09T23:56:34.658Z,100.00
2023-01-09T23:59:09.587Z,100.00
